Elliot Airport


Codes: FAET/
Name: Elliot Airport
City: Elliot
Country: South Africa
Elevation: 5028 ft.

Photos at Elliot Airport


   Photos courtesy of SpottingLog. You can add your own sightings and photos by signing up for a free trial today.



No photos found.

Weather at Elliot Airport


Time (UTC)DescriptionTempratureWindCloud coverageVisibilityPressureHumidity
16-Jun-2024 03:00Few Clouds7°C4 mph, N11%10000m1027hPa49%
16-Jun-2024 06:00Few Clouds8°C4 mph, N15%10000m1026hPa44%
16-Jun-2024 09:00Few Clouds16°C0 mph, NW24%10000m1024hPa26%
16-Jun-2024 12:00Broken Clouds17°C2 mph, SW62%10000m1021hPa24%
16-Jun-2024 15:00Broken Clouds11°C0 mph, NE75%10000m1023hPa45%
16-Jun-2024 18:00Overcast Clouds9°C4 mph, N87%10000m1024hPa49%
16-Jun-2024 21:00Broken Clouds9°C7 mph, N75%10000m1024hPa44%
17-Jun-2024 00:00Broken Clouds8°C7 mph, N71%10000m1023hPa44%
17-Jun-2024 03:00Few Clouds7°C7 mph, N15%10000m1023hPa45%
17-Jun-2024 06:00Scattered Clouds8°C7 mph, N31%10000m1022hPa42%
17-Jun-2024 09:00Scattered Clouds17°C11 mph, NW47%10000m1019hPa21%
17-Jun-2024 12:00Broken Clouds18°C13 mph, NW54%10000m1017hPa21%
17-Jun-2024 15:00Clear Sky13°C9 mph, NW3%10000m1017hPa37%
17-Jun-2024 18:00Clear Sky11°C9 mph, NW9%10000m1018hPa51%
17-Jun-2024 21:00Light Rain12°C11 mph, NW27%10000m1016hPa56%
18-Jun-2024 00:00Few Clouds13°C18 mph, NW17%10000m1013hPa42%
18-Jun-2024 03:00Clear Sky10°C11 mph, NW0%10000m1014hPa46%
18-Jun-2024 06:00Clear Sky10°C11 mph, NW0%10000m1016hPa40%
18-Jun-2024 09:00Clear Sky14°C16 mph, NW0%10000m1016hPa25%
18-Jun-2024 12:00Clear Sky16°C18 mph, NW0%10000m1015hPa23%
18-Jun-2024 15:00Clear Sky12°C9 mph, NW2%10000m1017hPa32%
18-Jun-2024 18:00Clear Sky8°C7 mph, NW1%10000m1019hPa39%
18-Jun-2024 21:00Clear Sky7°C7 mph, NW0%10000m1020hPa43%
19-Jun-2024 00:00Clear Sky6°C7 mph, NW0%10000m1020hPa45%
19-Jun-2024 03:00Clear Sky5°C7 mph, NW0%10000m1020hPa45%
19-Jun-2024 06:00Clear Sky6°C7 mph, NW0%10000m1022hPa42%
19-Jun-2024 09:00Clear Sky15°C9 mph, NW0%10000m1020hPa23%
19-Jun-2024 12:00Clear Sky16°C9 mph, W0%10000m1019hPa21%
19-Jun-2024 15:00Clear Sky11°C2 mph, SW3%10000m1021hPa33%
19-Jun-2024 18:00Clear Sky5°C2 mph, E3%10000m1026hPa69%
19-Jun-2024 21:00Few Clouds5°C4 mph, NE18%10000m1027hPa85%
20-Jun-2024 00:00Few Clouds5°C4 mph, NE23%10000m1026hPa84%
20-Jun-2024 03:00Clear Sky4°C4 mph, N3%10000m1026hPa75%
20-Jun-2024 06:00Clear Sky6°C7 mph, N7%10000m1025hPa53%
20-Jun-2024 09:00Broken Clouds16°C4 mph, N61%10000m1021hPa21%
20-Jun-2024 12:00Broken Clouds19°C13 mph, NW74%10000m1018hPa18%
20-Jun-2024 15:00Overcast Clouds14°C9 mph, N85%10000m1019hPa30%
20-Jun-2024 18:00Broken Clouds11°C9 mph, N75%10000m1020hPa37%
20-Jun-2024 21:00Broken Clouds11°C9 mph, N67%10000m1019hPa36%
21-Jun-2024 00:00Scattered Clouds11°C7 mph, N37%10000m1018hPa34%